North Tonawanda, New York
Current Conditions -  °F | °C
As of 3:53 AM on Saturday 25 Oct 2014 (Local Time) from KIAG Reporting Station
Overcast Overcast  
Wind Chill: 53°   Ceiling: 4200
Heat Index: 53°   Visibility: 8mi
Dew Point: 46°   Wind: 9mph
Humidity: 77%   Direction: 240°WSW
Pressure: 29.87"   Gusts: NA
Location:  43.03°N, 78.87°W
Report Text: KIAG 250753Z AUTO 24008KT 8SM OVC042 12/08 A2987 RMK AO2 SLP120 T01170078
Loading
Personal Weather Stations






























Interactive Weather Map
Tropical Storm Tracking
New forecast layout! Learn more

10-Day Weather Forecast

Advertisements
Track Severe Weather on mobile